Time;durP1;ratioP1;P1;durP2;ratioP2;P2;SDS_P1;SDS_P2;PMS_P1;PMS_P2;Temp;Humidity;BMP_temperature;BMP_pressure;BME280_temperature;BME280_humidity;BME280_pressure;Samples;Min_cycle;Max_cycle;Signal;HPM_P1;HPM_P2
2022/12/19 00:01:32;;;;;;;;;;;;;;;;;;5112950;28;1894;-41
2022/12/19 00:04:01;;;;;;;;;;;;;;;;;;5112812;28;1984;-42
2022/12/19 00:06:29;;;;;;;;;;;;;;;;;;5091239;28;1961;-41
2022/12/19 00:09:00;;;;;;;;;;;;;;;;;;5092274;28;1297;-44
2022/12/19 00:11:28;;;;;;;;;;;;;;;;;;5092302;28;1778;-42
2022/12/19 00:13:55;;;;;;;;;;;;;;;;;;5092234;28;1958;-42
2022/12/19 00:16:24;;;;;;;;;;;;;;;;;;5092322;28;1788;-45
2022/12/19 00:18:52;;;;;;;;;;;;;;;;;;5092108;28;1857;-43
2022/12/19 00:21:21;;;;;;;;;;;;;;;;;;5092009;28;1958;-42
2022/12/19 00:23:50;;;;;;;;;;;;;;;;;;5090818;28;1906;-43
2022/12/19 00:26:22;;;;;;;;;;;;;;;;;;5092157;28;1858;-41
2022/12/19 00:28:54;;;;;;;;;;;;;;;;;;5091985;28;1699;-41
2022/12/19 00:31:23;;;;;;;;;;;;;;;;;;5092047;28;1738;-41
2022/12/19 00:33:50;;;;;;;;;;;;;;;;;;5091410;28;1982;-42
2022/12/19 00:36:19;;;;;;;;;;;;;;;;;;5092015;28;1697;-41
2022/12/19 00:38:50;;;;;;;;;;;;;;;;;;5091991;28;1837;-42
2022/12/19 00:41:18;;;;;;;;;;;;;;;;;;5091786;28;2003;-41
2022/12/19 00:43:45;;;;;;;;;;;;;;;;;;5091699;28;1967;-42
2022/12/19 00:46:13;;;;;;;;;;;;;;;;;;5091549;28;2019;-41
2022/12/19 00:48:41;;;;;;;;;;;;;;;;;;5090442;28;2144;-41
2022/12/19 00:51:13;;;;;;;;;;;;;;;;;;5090598;28;1978;-42
2022/12/19 00:53:41;;;;;;;;;;;;;;;;;;5091477;28;1313;-40
2022/12/19 00:56:12;;;;;;;;;;;;;;;;;;5091833;28;1838;-41
2022/12/19 00:58:40;;;;;;;;;;;;;;;;;;5091440;28;1716;-41
2022/12/19 01:01:16;;;;;;;;;;;;;;;;;;5097165;28;2357;-43
2022/12/19 01:03:43;;;;;;;;;;;;;;;;;;5111714;28;1974;-41
2022/12/19 01:06:30;;;;;;;;;;;;;;;;;;5091493;28;1668;-42
2022/12/19 01:08:57;;;;;;;;;;;;;;;;;;5091407;28;1751;-43
2022/12/19 01:14:11;;;;;;;;;;;;;;;;;;5090805;28;1468;-40
2022/12/19 01:16:41;;;;;;;;;;;;;;;;;;5090009;28;1574;-42
2022/12/19 01:19:08;;;;;;;;;;;;;;;;;;5090071;28;1798;-40
2022/12/19 01:21:36;;;;;;;;;;;;;;;;;;5091310;28;2131;-42
2022/12/19 01:24:03;;;;;;;;;;;;;;;;;;5091106;28;2023;-42
2022/12/19 01:26:30;;;;;;;;;;;;;;;;;;5091335;28;1680;-43
2022/12/19 01:28:57;;;;;;;;;;;;;;;;;;5091223;28;1913;-42
2022/12/19 01:31:26;;;;;;;;;;;;;;;;;;5091238;28;2055;-42
2022/12/19 01:33:54;;;;;;;;;;;;;;;;;;5091209;28;2036;-41
2022/12/19 01:36:21;;;;;;;;;;;;;;;;;;5091077;28;2005;-42
2022/12/19 01:38:49;;;;;;;;;;;;;;;;;;5091047;28;1411;-40
2022/12/19 01:41:16;;;;;;;;;;;;;;;;;;5091002;28;1970;-44
2022/12/19 01:44:00;;;;;;;;;;;;;;;;;;5090823;28;1914;-41
2022/12/19 01:46:31;;;;;;;;;;;;;;;;;;5089672;28;2104;-42
2022/12/19 01:49:01;;;;;;;;;;;;;;;;;;5090997;28;1601;-43
2022/12/19 01:51:36;;;;;;;;;;;;;;;;;;5091007;28;1811;-41
2022/12/19 01:54:05;;;;;;;;;;;;;;;;;;5090896;28;1412;-44
2022/12/19 01:56:34;;;;;;;;;;;;;;;;;;5091035;28;1630;-42
2022/12/19 01:59:04;;;;;;;;;;;;;;;;;;5091014;28;1906;-43
2022/12/19 02:01:36;;;;;;;;;;;;;;;;;;5091043;28;1651;-42
2022/12/19 02:04:20;;;;;;;;;;;;;;;;;;5101141;28;1981;-43
2022/12/19 02:06:48;;;;;;;;;;;;;;;;;;5109661;28;1702;-43
2022/12/19 02:09:16;;;;;;;;;;;;;;;;;;5111151;28;1831;-43
2022/12/19 02:11:43;;;;;;;;;;;;;;;;;;5109394;28;1409;-41
2022/12/19 02:14:11;;;;;;;;;;;;;;;;;;5111352;28;1911;-42
2022/12/19 02:16:40;;;;;;;;;;;;;;;;;;5110165;28;1570;-43
2022/12/19 02:19:11;;;;;;;;;;;;;;;;;;5111053;28;1690;-42
2022/12/19 02:21:44;;;;;;;;;;;;;;;;;;5111270;28;2028;-41
2022/12/19 02:24:44;;;;;;;;;;;;;;;;;;5109861;28;2282;-42
2022/12/19 02:27:11;;;;;;;;;;;;;;;;;;5058971;28;1789;-42
2022/12/19 02:29:57;;;;;;;;;;;;;;;;;;5113653;28;1628;-42
2022/12/19 02:32:31;;;;;;;;;;;;;;;;;;5113373;28;1834;-41
2022/12/19 02:34:59;;;;;;;;;;;;;;;;;;5113291;28;2068;-43
2022/12/19 02:37:31;;;;;;;;;;;;;;;;;;5113265;28;1921;-43
2022/12/19 02:40:14;;;;;;;;;;;;;;;;;;5113198;28;1644;-41
2022/12/19 02:42:42;;;;;;;;;;;;;;;;;;5113023;28;1909;-43
2022/12/19 02:45:12;;;;;;;;;;;;;;;;;;5113044;28;1961;-41
2022/12/19 02:47:40;;;;;;;;;;;;;;;;;;5096693;28;1682;-41
2022/12/19 02:50:08;;;;;;;;;;;;;;;;;;5113406;28;1559;-44
2022/12/19 02:52:35;;;;;;;;;;;;;;;;;;5113233;28;2223;-42
2022/12/19 02:55:05;;;;;;;;;;;;;;;;;;5112990;28;1770;-41
2022/12/19 02:57:39;;;;;;;;;;;;;;;;;;5112905;28;1696;-44
2022/12/19 03:00:07;;;;;;;;;;;;;;;;;;5114523;28;1593;-44
2022/12/19 03:02:54;;;;;;;;;;;;;;;;;;5114240;28;1990;-43
2022/12/19 03:05:32;;;;;;;;;;;;;;;;;;5101871;28;1685;-41
2022/12/19 03:08:02;;;;;;;;;;;;;;;;;;5092054;28;1858;-41
2022/12/19 03:10:40;;;;;;;;;;;;;;;;;;5092528;28;2287;-42
2022/12/19 03:13:10;;;;;;;;;;;;;;;;;;5093693;28;1971;-42
2022/12/19 03:15:39;;;;;;;;;;;;;;;;;;5093759;28;1615;-42
2022/12/19 03:18:07;;;;;;;;;;;;;;;;;;5093545;28;1935;-42
2022/12/19 03:20:44;;;;;;;;;;;;;;;;;;5093128;28;1538;-41
2022/12/19 03:23:11;;;;;;;;;;;;;;;;;;5093313;28;2149;-42
2022/12/19 03:25:40;;;;;;;;;;;;;;;;;;5093603;28;2096;-42
2022/12/19 03:28:10;;;;;;;;;;;;;;;;;;5093678;28;1807;-43
2022/12/19 03:30:40;;;;;;;;;;;;;;;;;;5093413;28;1702;-42
2022/12/19 03:33:08;;;;;;;;;;;;;;;;;;5093158;28;1535;-45
2022/12/19 03:35:36;;;;;;;;;;;;;;;;;;5093141;28;1898;-41
2022/12/19 03:38:04;;;;;;;;;;;;;;;;;;5092804;28;1519;-43
2022/12/19 03:40:33;;;;;;;;;;;;;;;;;;5093113;28;1510;-44
2022/12/19 03:43:08;;;;;;;;;;;;;;;;;;5092872;28;1983;-42
2022/12/19 03:45:45;;;;;;;;;;;;;;;;;;5092952;28;1709;-43
2022/12/19 03:48:15;;;;;;;;;;;;;;;;;;5092724;28;2265;-42
2022/12/19 03:50:56;;;;;;;;;;;;;;;;;;5092740;28;1757;-42
2022/12/19 03:53:39;;;;;;;;;;;;;;;;;;5092710;28;1562;-43
2022/12/19 03:56:09;;;;;;;;;;;;;;;;;;5092741;28;1680;-41
2022/12/19 03:58:39;;;;;;;;;;;;;;;;;;5093022;28;1527;-42
2022/12/19 04:01:07;;;;;;;;;;;;;;;;;;5092885;28;1196;-41
2022/12/19 04:03:34;;;;;;;;;;;;;;;;;;5092549;28;1914;-43
2022/12/19 04:06:02;;;;;;;;;;;;;;;;;;5109599;28;1442;-42
2022/12/19 04:08:31;;;;;;;;;;;;;;;;;;5112805;28;1795;-41
2022/12/19 04:11:01;;;;;;;;;;;;;;;;;;5112827;28;1970;-42
2022/12/19 04:13:40;;;;;;;;;;;;;;;;;;5111627;28;1413;-43
2022/12/19 04:16:10;;;;;;;;;;;;;;;;;;5112828;28;1571;-42
2022/12/19 04:18:39;;;;;;;;;;;;;;;;;;5112824;28;1696;-42
2022/12/19 04:21:16;;;;;;;;;;;;;;;;;;5112723;28;2065;-42
2022/12/19 04:23:46;;;;;;;;;;;;;;;;;;5112631;28;1901;-43
2022/12/19 04:26:15;;;;;;;;;;;;;;;;;;5102316;28;2002;-43
2022/12/19 04:28:53;;;;;;;;;;;;;;;;;;5092168;28;2276;-41
2022/12/19 04:31:21;;;;;;;;;;;;;;;;;;5094640;28;1711;-43
2022/12/19 04:33:49;;;;;;;;;;;;;;;;;;5112269;28;1272;-42
2022/12/19 04:36:16;;;;;;;;;;;;;;;;;;5112407;27;2061;-43
2022/12/19 04:38:43;;;;;;;;;;;;;;;;;;5112475;28;2000;-42
2022/12/19 04:41:11;;;;;;;;;;;;;;;;;;5112578;28;1581;-42
2022/12/19 04:43:38;;;;;;;;;;;;;;;;;;5112379;28;1910;-42
2022/12/19 04:46:05;;;;;;;;;;;;;;;;;;5111887;28;1810;-43
2022/12/19 04:48:34;;;;;;;;;;;;;;;;;;5111192;28;1921;-42
2022/12/19 04:51:01;;;;;;;;;;;;;;;;;;5112042;28;2169;-42
2022/12/19 04:53:28;;;;;;;;;;;;;;;;;;5112107;28;1635;-44
2022/12/19 04:56:02;;;;;;;;;;;;;;;;;;5111947;28;1800;-40
2022/12/19 04:58:30;;;;;;;;;;;;;;;;;;5111810;28;1581;-40
2022/12/19 05:01:04;;;;;;;;;;;;;;;;;;5112033;28;2211;-40
2022/12/19 05:03:31;;;;;;;;;;;;;;;;;;5111969;28;1925;-40
2022/12/19 05:06:12;;;;;;;;;;;;;;;;;;5111722;28;1462;-40
2022/12/19 05:08:40;;;;;;;;;;;;;;;;;;5112101;28;1687;-43
2022/12/19 05:11:08;;;;;;;;;;;;;;;;;;5111936;28;1865;-40
2022/12/19 05:13:37;;;;;;;;;;;;;;;;;;5111488;28;2020;-40
2022/12/19 05:16:06;;;;;;;;;;;;;;;;;;5111800;28;1639;-42
2022/12/19 05:18:34;;;;;;;;;;;;;;;;;;5111508;28;1769;-41
2022/12/19 05:21:01;;;;;;;;;;;;;;;;;;5111813;28;1860;-41
2022/12/19 05:23:28;;;;;;;;;;;;;;;;;;5111468;28;2035;-41
2022/12/19 05:25:59;;;;;;;;;;;;;;;;;;5111602;28;1549;-41
2022/12/19 05:28:26;;;;;;;;;;;;;;;;;;5111638;28;1522;-41
2022/12/19 05:31:03;;;;;;;;;;;;;;;;;;5111453;28;1928;-40
2022/12/19 05:33:31;;;;;;;;;;;;;;;;;;5111504;28;1655;-42
2022/12/19 05:35:57;;;;;;;;;;;;;;;;;;5110153;28;1839;-41
2022/12/19 05:38:25;;;;;;;;;;;;;;;;;;5111588;28;1902;-43
2022/12/19 05:40:52;;;;;;;;;;;;;;;;;;5111390;28;1717;-41
2022/12/19 05:43:19;;;;;;;;;;;;;;;;;;5111641;28;1852;-41
2022/12/19 05:45:46;;;;;;;;;;;;;;;;;;5111029;28;1918;-43
2022/12/19 05:48:14;;;;;;;;;;;;;;;;;;5111544;28;1725;-42
2022/12/19 05:50:45;;;;;;;;;;;;;;;;;;5111332;28;1815;-41
2022/12/19 05:53:12;;;;;;;;;;;;;;;;;;5111349;28;2316;-43
2022/12/19 05:55:39;;;;;;;;;;;;;;;;;;5111497;28;1732;-40
2022/12/19 05:58:09;;;;;;;;;;;;;;;;;;5111611;28;1654;-41
2022/12/19 06:00:36;;;;;;;;;;;;;;;;;;5114132;28;2061;-41
2022/12/19 06:03:03;;;;;;;;;;;;;;;;;;5115353;28;1885;-40
2022/12/19 06:05:30;;;;;;;;;;;;;;;;;;5115270;28;1919;-43
2022/12/19 06:07:57;;;;;;;;;;;;;;;;;;5115394;28;1795;-41
2022/12/19 06:10:24;;;;;;;;;;;;;;;;;;5114101;28;1517;-41
2022/12/19 06:12:51;;;;;;;;;;;;;;;;;;5115205;28;1331;-40
2022/12/19 06:15:18;;;;;;;;;;;;;;;;;;5115235;28;1710;-41
2022/12/19 06:17:45;;;;;;;;;;;;;;;;;;5114875;28;2226;-40
2022/12/19 06:20:12;;;;;;;;;;;;;;;;;;5114922;28;1896;-41
2022/12/19 06:22:39;;;;;;;;;;;;;;;;;;5115148;28;1819;-41
2022/12/19 06:25:08;;;;;;;;;;;;;;;;;;5115033;28;1969;-41
2022/12/19 06:27:37;;;;;;;;;;;;;;;;;;5115129;28;1893;-40
2022/12/19 06:30:05;;;;;;;;;;;;;;;;;;5114554;28;1935;-44
2022/12/19 06:32:32;;;;;;;;;;;;;;;;;;5114841;28;2001;-40
2022/12/19 06:35:04;;;;;;;;;;;;;;;;;;5114723;28;1788;-41
2022/12/19 06:37:31;;;;;;;;;;;;;;;;;;5114638;28;2022;-43
2022/12/19 06:39:58;;;;;;;;;;;;;;;;;;5114618;28;1277;-41
2022/12/19 06:42:25;;;;;;;;;;;;;;;;;;5114666;28;1710;-41
2022/12/19 06:44:53;;;;;;;;;;;;;;;;;;5114441;28;1976;-41
2022/12/19 06:47:22;;;;;;;;;;;;;;;;;;5114662;27;1383;-40
2022/12/19 06:49:49;;;;;;;;;;;;;;;;;;5114452;28;1940;-43
2022/12/19 06:52:16;;;;;;;;;;;;;;;;;;5114449;28;2210;-41
2022/12/19 06:54:43;;;;;;;;;;;;;;;;;;5114387;28;1686;-40
2022/12/19 06:57:11;;;;;;;;;;;;;;;;;;5114500;28;1911;-40
2022/12/19 06:59:38;;;;;;;;;;;;;;;;;;5114539;28;1707;-40
2022/12/19 07:02:06;;;;;;;;;;;;;;;;;;5114138;28;1904;-40
2022/12/19 07:04:35;;;;;;;;;;;;;;;;;;5109463;28;1990;-41
2022/12/19 07:07:03;;;;;;;;;;;;;;;;;;5093768;28;1674;-40
2022/12/19 07:09:32;;;;;;;;;;;;;;;;;;5104070;28;1820;-40
2022/12/19 07:12:00;;;;;;;;;;;;;;;;;;5112842;28;2015;-40
2022/12/19 07:14:27;;;;;;;;;;;;;;;;;;5114099;28;1701;-41
2022/12/19 07:16:56;;;;;;;;;;;;;;;;;;5114065;27;1459;-40
2022/12/19 07:19:24;;;;;;;;;;;;;;;;;;5113540;28;1838;-40
2022/12/19 07:21:51;;;;;;;;;;;;;;;;;;5113785;28;1211;-40
2022/12/19 07:24:18;;;;;;;;;;;;;;;;;;5113525;28;2130;-40
2022/12/19 07:26:45;;;;;;;;;;;;;;;;;;5113697;28;1630;-41
2022/12/19 07:29:12;;;;;;;;;;;;;;;;;;5114152;28;2001;-40
2022/12/19 07:31:39;;;;;;;;;;;;;;;;;;5113918;28;2069;-41
2022/12/19 07:34:07;;;;;;;;;;;;;;;;;;5113656;28;2304;-42
2022/12/19 07:36:34;;;;;;;;;;;;;;;;;;5113562;28;1828;-40
2022/12/19 07:39:01;;;;;;;;;;;;;;;;;;5113342;28;1760;-42
2022/12/19 07:41:28;;;;;;;;;;;;;;;;;;5113554;28;2157;-40
2022/12/19 07:43:55;;;;;;;;;;;;;;;;;;5113378;28;1961;-41
2022/12/19 07:46:22;;;;;;;;;;;;;;;;;;5113418;28;1939;-40
2022/12/19 07:48:52;;;;;;;;;;;;;;;;;;5113383;28;1375;-40
2022/12/19 07:51:19;;;;;;;;;;;;;;;;;;5111699;28;1789;-40
2022/12/19 07:53:46;;;;;;;;;;;;;;;;;;5113217;28;1437;-40
2022/12/19 07:56:14;;;;;;;;;;;;;;;;;;5113104;27;1636;-41
2022/12/19 07:58:40;;;;;;;;;;;;;;;;;;5113185;28;1752;-41
2022/12/19 08:01:08;;;;;;;;;;;;;;;;;;5113239;28;1545;-41
2022/12/19 08:03:35;;;;;;;;;;;;;;;;;;5112019;28;2061;-40
2022/12/19 08:06:03;;;;;;;;;;;;;;;;;;5095182;28;1909;-41
2022/12/19 08:08:32;;;;;;;;;;;;;;;;;;5092200;28;2150;-41
2022/12/19 08:11:10;;;;;;;;;;;;;;;;;;5092194;28;2126;-41
2022/12/19 08:13:38;;;;;;;;;;;;;;;;;;5112844;28;1406;-40
2022/12/19 08:16:11;;;;;;;;;;;;;;;;;;5112830;28;1920;-41
2022/12/19 08:18:39;;;;;;;;;;;;;;;;;;5112236;28;1470;-41
2022/12/19 08:21:07;;;;;;;;;;;;;;;;;;5112434;28;1856;-40
2022/12/19 08:23:34;;;;;;;;;;;;;;;;;;5111411;27;2025;-41
2022/12/19 08:26:05;;;;;;;;;;;;;;;;;;5112271;28;1974;-39
2022/12/19 08:28:33;;;;;;;;;;;;;;;;;;5112409;28;1603;-41
2022/12/19 08:31:11;;;;;;;;;;;;;;;;;;5112041;28;1748;-39
2022/12/19 08:33:38;;;;;;;;;;;;;;;;;;5112338;28;1759;-40
2022/12/19 08:36:15;;;;;;;;;;;;;;;;;;5112149;28;1967;-39
2022/12/19 08:38:42;;;;;;;;;;;;;;;;;;5112074;28;1831;-41
2022/12/19 08:41:10;;;;;;;;;;;;;;;;;;5111288;28;1508;-40
2022/12/19 08:43:37;;;;;;;;;;;;;;;;;;5112174;28;1461;-40
2022/12/19 08:46:05;;;;;;;;;;;;;;;;;;5111573;28;1929;-40
2022/12/19 08:48:33;;;;;;;;;;;;;;;;;;5112157;28;1674;-41
2022/12/19 08:51:04;;;;;;;;;;;;;;;;;;5110970;28;2186;-40
2022/12/19 08:53:32;;;;;;;;;;;;;;;;;;5112062;28;1703;-39
2022/12/19 08:56:01;;;;;;;;;;;;;;;;;;5111523;28;1369;-39
2022/12/19 08:58:28;;;;;;;;;;;;;;;;;;5111595;28;1796;-38
2022/12/19 09:00:59;;;;;;;;;;;;;;;;;;5111940;28;1590;-38
2022/12/19 09:03:31;;;;;;;;;;;;;;;;;;5111704;28;2289;-40
2022/12/19 09:06:06;;;;;;;;;;;;;;;;;;5111507;28;1915;-39
2022/12/19 09:08:39;;;;;;;;;;;;;;;;;;5111407;28;1810;-38
2022/12/19 09:11:08;;;;;;;;;;;;;;;;;;5111687;28;2217;-39
2022/12/19 09:13:35;;;;;;;;;;;;;;;;;;5111542;28;1851;-40
2022/12/19 09:16:04;;;;;;;;;;;;;;;;;;5111207;28;1491;-39
2022/12/19 09:18:31;;;;;;;;;;;;;;;;;;5111427;28;1653;-42
2022/12/19 09:20:58;;;;;;;;;;;;;;;;;;5111074;27;1609;-40
2022/12/19 09:23:26;;;;;;;;;;;;;;;;;;5111224;28;1992;-40
2022/12/19 09:25:54;;;;;;;;;;;;;;;;;;5111399;28;1916;-40
2022/12/19 09:28:21;;;;;;;;;;;;;;;;;;5111322;28;1922;-39
2022/12/19 09:30:57;;;;;;;;;;;;;;;;;;5111362;28;1515;-39
2022/12/19 09:33:24;;;;;;;;;;;;;;;;;;5110953;28;2068;-40
2022/12/19 09:35:52;;;;;;;;;;;;;;;;;;5110846;28;2148;-41
2022/12/19 09:38:21;;;;;;;;;;;;;;;;;;5111399;28;1229;-40
2022/12/19 09:41:03;;;;;;;;;;;;;;;;;;5094599;28;1980;-40
2022/12/19 09:43:41;;;;;;;;;;;;;;;;;;5089444;28;1679;-39
2022/12/19 09:46:18;;;;;;;;;;;;;;;;;;5090585;28;1957;-39
2022/12/19 09:48:46;;;;;;;;;;;;;;;;;;5090791;28;1440;-41
2022/12/19 09:51:29;;;;;;;;;;;;;;;;;;5090922;28;1579;-40
2022/12/19 09:54:19;;;;;;;;;;;;;;;;;;5090580;28;2066;-41
2022/12/19 09:56:46;;;;;;;;;;;;;;;;;;5079317;28;1551;-38
2022/12/19 09:59:27;;;;;;;;;;;;;;;;;;5100975;28;2026;-41
2022/12/19 10:02:11;;;;;;;;;;;;;;;;;;5110105;28;1538;-41
2022/12/19 10:04:41;;;;;;;;;;;;;;;;;;5110798;28;1914;-40
2022/12/19 10:07:09;;;;;;;;;;;;;;;;;;5111215;28;1699;-40
2022/12/19 10:09:56;;;;;;;;;;;;;;;;;;5091873;28;1706;-39
2022/12/19 10:12:46;;;;;;;;;;;;;;;;;;5090697;28;1924;-40
2022/12/19 10:15:24;;;;;;;;;;;;;;;;;;5095201;28;1767;-41
2022/12/19 10:18:10;;;;;;;;;;;;;;;;;;5109588;28;2134;-41
2022/12/19 10:20:40;;;;;;;;;;;;;;;;;;5110794;28;2227;-43
2022/12/19 10:23:10;;;;;;;;;;;;;;;;;;5110890;28;1412;-41
2022/12/19 10:25:57;;;;;;;;;;;;;;;;;;5110638;28;2256;-40
2022/12/19 10:28:39;;;;;;;;;;;;;;;;;;5110770;28;1660;-43
2022/12/19 10:31:41;;;;;;;;;;;;;;;;;;5110879;28;1852;-39
2022/12/19 10:34:17;;;;;;;;;;;;;;;;;;5031306;28;1195;-41
2022/12/19 10:36:50;;;;;;;;;;;;;;;;;;5085279;28;1940;-43
2022/12/19 10:39:56;;;;;;;;;;;;;;;;;;5110443;28;1650;-39
2022/12/19 10:42:30;;;;;;;;;;;;;;;;;;5110289;28;2043;-44
2022/12/19 10:44:58;;;;;;;;;;;;;;;;;;5108741;28;2371;-41
2022/12/19 10:47:25;;;;;;;;;;;;;;;;;;5111475;28;1471;-41
2022/12/19 10:49:52;;;;;;;;;;;;;;;;;;5113116;28;2171;-41
2022/12/19 10:52:40;;;;;;;;;;;;;;;;;;5112955;28;1656;-41
2022/12/19 10:55:20;;;;;;;;;;;;;;;;;;5102056;28;1835;-42
2022/12/19 10:57:48;;;;;;;;;;;;;;;;;;5112894;28;1433;-42
2022/12/19 11:00:16;;;;;;;;;;;;;;;;;;5113155;28;1728;-41
2022/12/19 11:02:45;;;;;;;;;;;;;;;;;;5113031;28;1889;-41
2022/12/19 11:05:38;;;;;;;;;;;;;;;;;;5113298;28;2132;-43
2022/12/19 11:08:05;;;;;;;;;;;;;;;;;;5111167;28;1754;-41
2022/12/19 11:10:34;;;;;;;;;;;;;;;;;;5113032;28;1555;-42
2022/12/19 11:13:23;;;;;;;;;;;;;;;;;;5113214;28;1961;-41
2022/12/19 11:16:12;;;;;;;;;;;;;;;;;;5113380;28;1461;-41
2022/12/19 11:18:59;;;;;;;;;;;;;;;;;;5112676;28;1717;-41
2022/12/19 11:21:46;;;;;;;;;;;;;;;;;;5112839;28;1495;-41
2022/12/19 11:24:34;;;;;;;;;;;;;;;;;;5112871;28;1608;-43
2022/12/19 11:27:34;;;;;;;;;;;;;;;;;;5113096;28;1820;-41
2022/12/19 11:30:23;;;;;;;;;;;;;;;;;;5103234;28;1334;-41
2022/12/19 11:33:14;;;;;;;;;;;;;;;;;;5095216;28;1867;-42
2022/12/19 11:35:47;;;;;;;;;;;;;;;;;;5092230;28;1663;-40
2022/12/19 11:38:17;;;;;;;;;;;;;;;;;;5092083;28;1651;-41
2022/12/19 11:40:49;;;;;;;;;;;;;;;;;;5092230;28;2064;-41
2022/12/19 11:43:16;;;;;;;;;;;;;;;;;;5092645;28;1933;-41
2022/12/19 11:46:03;;;;;;;;;;;;;;;;;;5102658;28;1973;-41
2022/12/19 11:48:36;;;;;;;;;;;;;;;;;;5111947;27;1623;-40
2022/12/19 11:51:26;;;;;;;;;;;;;;;;;;5112616;28;2058;-44
2022/12/19 11:54:03;;;;;;;;;;;;;;;;;;5112218;28;1904;-40
2022/12/19 11:56:30;;;;;;;;;;;;;;;;;;5112704;28;1424;-41
2022/12/19 11:59:06;;;;;;;;;;;;;;;;;;5107548;28;2066;-41
2022/12/19 12:01:52;;;;;;;;;;;;;;;;;;5096934;28;1845;-45
2022/12/19 12:04:38;;;;;;;;;;;;;;;;;;5094974;28;1913;-41
2022/12/19 12:07:07;;;;;;;;;;;;;;;;;;5112392;28;1973;-41
2022/12/19 12:09:39;;;;;;;;;;;;;;;;;;5112076;28;1358;-41
2022/12/19 12:12:30;;;;;;;;;;;;;;;;;;5111895;28;1857;-42
2022/12/19 12:15:23;;;;;;;;;;;;;;;;;;5112122;28;1996;-40
2022/12/19 12:18:10;;;;;;;;;;;;;;;;;;5111675;28;1417;-44
2022/12/19 12:20:57;;;;;;;;;;;;;;;;;;5111282;28;1779;-40
2022/12/19 12:23:59;;;;;;;;;;;;;;;;;;5111964;28;1698;-40
2022/12/19 12:26:52;;;;;;;;;;;;;;;;;;5111812;28;1923;-39
2022/12/19 12:29:51;;;;;;;;;;;;;;;;;;5112046;28;1928;-40
2022/12/19 12:32:51;;;;;;;;;;;;;;;;;;5111876;28;1825;-41
2022/12/19 12:35:40;;;;;;;;;;;;;;;;;;5091255;28;1941;-39
2022/12/19 12:38:46;;;;;;;;;;;;;;;;;;5090764;28;1665;-38
2022/12/19 12:44:26;;;;;;;;;;;;;;;;;;5091293;28;1791;-40
2022/12/19 12:47:01;;;;;;;;;;;;;;;;;;5090778;28;1945;-41
2022/12/19 12:49:29;;;;;;;;;;;;;;;;;;5090523;28;1526;-40
2022/12/19 12:51:58;;;;;;;;;;;;;;;;;;5090621;28;1713;-38
2022/12/19 12:54:31;;;;;;;;;;;;;;;;;;5090816;28;1845;-40
2022/12/19 12:56:58;;;;;;;;;;;;;;;;;;5090735;28;1356;-40
2022/12/19 12:59:27;;;;;;;;;;;;;;;;;;5090551;28;2082;-42
2022/12/19 13:01:56;;;;;;;;;;;;;;;;;;5109651;28;1943;-41
2022/12/19 13:04:31;;;;;;;;;;;;;;;;;;5110395;28;1768;-39
2022/12/19 13:06:59;;;;;;;;;;;;;;;;;;5110262;28;1979;-45
2022/12/19 13:09:32;;;;;;;;;;;;;;;;;;5110412;28;1945;-40
2022/12/19 13:14:48;;;;;;;;;;;;;;;;;;5111141;28;1737;-41
2022/12/19 13:17:38;;;;;;;;;;;;;;;;;;5110655;28;1833;-43
2022/12/19 13:20:05;;;;;;;;;;;;;;;;;;5110485;28;1940;-40
2022/12/19 13:22:32;;;;;;;;;;;;;;;;;;5110243;28;1884;-40
2022/12/19 13:25:00;;;;;;;;;;;;;;;;;;5110835;28;1585;-42
2022/12/19 13:27:34;;;;;;;;;;;;;;;;;;5109020;28;1909;-40
2022/12/19 13:30:13;;;;;;;;;;;;;;;;;;5111242;28;1865;-41
2022/12/19 13:32:40;;;;;;;;;;;;;;;;;;5111184;28;2064;-41
2022/12/19 13:35:08;;;;;;;;;;;;;;;;;;5110321;28;2041;-40
2022/12/19 13:38:04;;;;;;;;;;;;;;;;;;5110483;28;1348;-43
2022/12/19 13:40:58;;;;;;;;;;;;;;;;;;5110455;28;1800;-41
2022/12/19 13:43:46;;;;;;;;;;;;;;;;;;5110919;28;1795;-42
2022/12/19 13:46:32;;;;;;;;;;;;;;;;;;5110779;28;1908;-41
2022/12/19 13:49:05;;;;;;;;;;;;;;;;;;5110117;28;2090;-41
2022/12/19 13:51:44;;;;;;;;;;;;;;;;;;5110920;28;1269;-41
2022/12/19 13:54:18;;;;;;;;;;;;;;;;;;5110673;28;1418;-40
2022/12/19 13:56:46;;;;;;;;;;;;;;;;;;5110738;28;1760;-41
2022/12/19 13:59:13;;;;;;;;;;;;;;;;;;5110063;28;1690;-40
2022/12/19 14:01:40;;;;;;;;;;;;;;;;;;5110623;28;1587;-41
2022/12/19 14:04:25;;;;;;;;;;;;;;;;;;5110615;28;1980;-41
2022/12/19 14:07:00;;;;;;;;;;;;;;;;;;5110823;28;1904;-42
2022/12/19 14:09:31;;;;;;;;;;;;;;;;;;5110434;28;1937;-41
2022/12/19 14:15:47;;;;;;;;;;;;;;;;;;5110395;28;1836;-41
2022/12/19 14:18:22;;;;;;;;;;;;;;;;;;5110651;28;1479;-41
2022/12/19 14:21:09;;;;;;;;;;;;;;;;;;5111889;28;1685;-41
2022/12/19 14:24:09;;;;;;;;;;;;;;;;;;5113970;28;1567;-40
2022/12/19 14:26:37;;;;;;;;;;;;;;;;;;5114160;28;1907;-41
2022/12/19 14:29:29;;;;;;;;;;;;;;;;;;5100596;28;1850;-41
2022/12/19 14:32:16;;;;;;;;;;;;;;;;;;5094004;28;2163;-40
2022/12/19 14:35:07;;;;;;;;;;;;;;;;;;5093307;28;1945;-41
2022/12/19 14:37:59;;;;;;;;;;;;;;;;;;5093378;28;1651;-42
2022/12/19 14:40:46;;;;;;;;;;;;;;;;;;5093049;28;2100;-41
2022/12/19 14:43:39;;;;;;;;;;;;;;;;;;5093773;28;1395;-41
2022/12/19 14:46:28;;;;;;;;;;;;;;;;;;5091579;28;1927;-41
2022/12/19 14:49:25;;;;;;;;;;;;;;;;;;5092906;28;1756;-41
2022/12/19 14:52:31;;;;;;;;;;;;;;;;;;5092934;28;1762;-41
2022/12/19 14:55:30;;;;;;;;;;;;;;;;;;5093075;28;1230;-41
2022/12/19 14:58:29;;;;;;;;;;;;;;;;;;5093585;28;2097;-41
2022/12/19 15:01:21;;;;;;;;;;;;;;;;;;5092169;28;2057;-40
2022/12/19 15:03:58;;;;;;;;;;;;;;;;;;5093177;28;2070;-41
2022/12/19 15:06:46;;;;;;;;;;;;;;;;;;5106375;28;1972;-42
2022/12/19 15:09:41;;;;;;;;;;;;;;;;;;5113255;28;1435;-41
2022/12/19 15:15:37;;;;;;;;;;;;;;;;;;5112401;28;1422;-41
2022/12/19 15:18:17;;;;;;;;;;;;;;;;;;5110922;28;2167;-42
2022/12/19 15:20:44;;;;;;;;;;;;;;;;;;5112629;28;1287;-42
2022/12/19 15:23:11;;;;;;;;;;;;;;;;;;5113168;28;2238;-43
2022/12/19 15:25:43;;;;;;;;;;;;;;;;;;5112584;28;1193;-42
2022/12/19 15:28:55;;;;;;;;;;;;;;;;;;5112898;28;1776;-43
2022/12/19 15:31:37;;;;;;;;;;;;;;;;;;5109311;28;1845;-41
2022/12/19 15:34:24;;;;;;;;;;;;;;;;;;5091105;28;1724;-42
2022/12/19 15:37:03;;;;;;;;;;;;;;;;;;5092207;28;1630;-41
2022/12/19 15:39:30;;;;;;;;;;;;;;;;;;5092270;28;1802;-42
2022/12/19 15:41:58;;;;;;;;;;;;;;;;;;5091802;28;1681;-41
2022/12/19 15:44:29;;;;;;;;;;;;;;;;;;5092165;28;1299;-42
2022/12/19 15:46:57;;;;;;;;;;;;;;;;;;5091812;28;2131;-41
2022/12/19 15:49:25;;;;;;;;;;;;;;;;;;5091965;28;1877;-42
2022/12/19 15:51:52;;;;;;;;;;;;;;;;;;5091557;28;1876;-41
2022/12/19 15:54:19;;;;;;;;;;;;;;;;;;5092383;28;1972;-41
2022/12/19 15:57:14;;;;;;;;;;;;;;;;;;5092048;28;1695;-43
2022/12/19 15:59:43;;;;;;;;;;;;;;;;;;5092429;28;2035;-43
2022/12/19 16:02:36;;;;;;;;;;;;;;;;;;5092177;28;1465;-41
2022/12/19 16:05:24;;;;;;;;;;;;;;;;;;5103471;28;1943;-44
2022/12/19 16:07:51;;;;;;;;;;;;;;;;;;5099581;28;2017;-43
2022/12/19 16:10:18;;;;;;;;;;;;;;;;;;5092292;28;1726;-43
2022/12/19 16:12:49;;;;;;;;;;;;;;;;;;5091840;28;2094;-43
2022/12/19 16:15:19;;;;;;;;;;;;;;;;;;5092151;28;1975;-42
2022/12/19 16:17:46;;;;;;;;;;;;;;;;;;5091306;28;1409;-42
2022/12/19 16:20:14;;;;;;;;;;;;;;;;;;5091875;28;1930;-42
2022/12/19 16:22:43;;;;;;;;;;;;;;;;;;5091888;28;1449;-43
2022/12/19 16:25:11;;;;;;;;;;;;;;;;;;5091701;28;1565;-42
2022/12/19 16:27:39;;;;;;;;;;;;;;;;;;5091622;28;1952;-44
2022/12/19 16:30:26;;;;;;;;;;;;;;;;;;5091645;28;1547;-43
2022/12/19 16:32:53;;;;;;;;;;;;;;;;;;5090325;28;1878;-43
2022/12/19 16:35:21;;;;;;;;;;;;;;;;;;5091162;28;1900;-42
2022/12/19 16:38:06;;;;;;;;;;;;;;;;;;5091448;28;1719;-43
2022/12/19 16:40:33;;;;;;;;;;;;;;;;;;5090542;28;2076;-44
2022/12/19 16:43:04;;;;;;;;;;;;;;;;;;5091335;28;1879;-42
2022/12/19 16:45:32;;;;;;;;;;;;;;;;;;5091554;28;1976;-43
2022/12/19 16:48:02;;;;;;;;;;;;;;;;;;5091122;28;1905;-42
2022/12/19 16:50:30;;;;;;;;;;;;;;;;;;5091062;28;1258;-43
2022/12/19 16:52:57;;;;;;;;;;;;;;;;;;5091060;28;1706;-43
2022/12/19 16:55:24;;;;;;;;;;;;;;;;;;5091028;28;1626;-41
2022/12/19 16:57:56;;;;;;;;;;;;;;;;;;5090919;28;996;-43
2022/12/19 17:00:24;;;;;;;;;;;;;;;;;;5090678;28;1455;-44
2022/12/19 17:02:57;;;;;;;;;;;;;;;;;;5090254;28;2113;-44
2022/12/19 17:05:26;;;;;;;;;;;;;;;;;;5111300;28;2004;-42
2022/12/19 17:07:54;;;;;;;;;;;;;;;;;;5110821;28;1963;-43
2022/12/19 17:10:23;;;;;;;;;;;;;;;;;;5111575;28;1594;-42
2022/12/19 17:12:52;;;;;;;;;;;;;;;;;;5111534;28;1906;-42
2022/12/19 17:15:25;;;;;;;;;;;;;;;;;;5109242;28;1502;-42
2022/12/19 17:17:55;;;;;;;;;;;;;;;;;;5111440;28;1431;-44
2022/12/19 17:20:24;;;;;;;;;;;;;;;;;;5110804;28;1768;-42
2022/12/19 17:22:51;;;;;;;;;;;;;;;;;;5111395;28;1482;-42
2022/12/19 17:25:22;;;;;;;;;;;;;;;;;;5111348;28;1890;-42
2022/12/19 17:27:50;;;;;;;;;;;;;;;;;;5110076;28;1977;-41
2022/12/19 17:30:17;;;;;;;;;;;;;;;;;;5111352;28;2061;-42
2022/12/19 17:32:45;;;;;;;;;;;;;;;;;;5111199;28;1552;-44
2022/12/19 17:35:17;;;;;;;;;;;;;;;;;;5111562;28;1517;-42
2022/12/19 17:37:50;;;;;;;;;;;;;;;;;;5111119;28;1675;-42
2022/12/19 17:40:19;;;;;;;;;;;;;;;;;;5111195;28;1609;-44
2022/12/19 17:42:46;;;;;;;;;;;;;;;;;;5111202;28;1788;-42
2022/12/19 17:45:14;;;;;;;;;;;;;;;;;;5111065;28;1736;-42
2022/12/19 17:47:42;;;;;;;;;;;;;;;;;;5111092;28;1988;-42
2022/12/19 17:50:17;;;;;;;;;;;;;;;;;;5111066;28;1380;-42
2022/12/19 17:52:44;;;;;;;;;;;;;;;;;;5111156;28;1953;-43
2022/12/19 17:55:13;;;;;;;;;;;;;;;;;;5110646;28;1891;-43
2022/12/19 17:57:40;;;;;;;;;;;;;;;;;;5115030;28;1445;-40
2022/12/19 18:00:09;;;;;;;;;;;;;;;;;;5115016;28;1474;-44